createdAt,value
2018-03-31T00:00:40.878Z,70.40
2018-03-31T00:01:40.897Z,70.03
2018-03-31T00:02:40.912Z,69.46
2018-03-31T00:03:40.934Z,69.65
2018-03-31T00:04:40.952Z,69.74
2018-03-31T00:05:40.981Z,69.84
2018-03-31T00:06:40.990Z,69.65
2018-03-31T00:07:41.009Z,70.21
2018-03-31T00:08:41.037Z,70.21
2018-03-31T00:09:41.047Z,70.31
2018-03-31T00:10:41.062Z,70.98
2018-03-31T00:11:41.083Z,70.98
2018-03-31T00:12:41.100Z,69.93
2018-03-31T00:13:41.121Z,69.65
2018-03-31T00:14:41.142Z,69.55
2018-03-31T00:15:41.156Z,69.46
2018-03-31T00:16:41.182Z,69.65
2018-03-31T00:17:41.197Z,69.46
2018-03-31T00:18:41.212Z,69.74
2018-03-31T00:19:41.232Z,69.93
2018-03-31T00:20:41.257Z,70.50
2018-03-31T00:21:41.272Z,70.40
2018-03-31T00:22:41.290Z,71.03
2018-03-31T00:23:41.305Z,70.21
2018-03-31T00:24:41.330Z,70.59
2018-03-31T00:25:41.344Z,70.12
2018-03-31T00:26:41.362Z,70.03
2018-03-31T00:27:41.395Z,70.03
2018-03-31T00:28:41.404Z,69.74
2018-03-31T00:29:41.429Z,69.46
2018-03-31T00:30:41.444Z,69.36
2018-03-31T00:31:41.456Z,69.65
2018-03-31T00:32:41.476Z,69.74
2018-03-31T00:33:41.500Z,70.12
2018-03-31T00:34:41.516Z,70.31
2018-03-31T00:35:41.531Z,70.03
2018-03-31T00:36:41.549Z,69.84
2018-03-31T00:37:41.570Z,69.65
2018-03-31T00:38:41.595Z,70.12
2018-03-31T00:39:41.605Z,70.31
2018-03-31T00:40:41.625Z,70.21
2018-03-31T00:41:41.646Z,70.18
2018-03-31T00:42:41.668Z,70.28
2018-03-31T00:43:41.686Z,70.40
2018-03-31T00:44:41.701Z,70.09
2018-03-31T00:45:41.720Z,69.93
2018-03-31T00:46:41.745Z,70.47
2018-03-31T00:47:41.761Z,70.37
2018-03-31T00:48:41.779Z,70.56
2018-03-31T00:49:41.795Z,70.75
2018-03-31T00:50:41.809Z,71.03
2018-03-31T00:51:41.830Z,70.75
2018-03-31T00:52:41.849Z,70.75
2018-03-31T00:53:41.871Z,71.03
2018-03-31T00:54:41.891Z,70.84
2018-03-31T00:55:41.910Z,70.65
2018-03-31T00:56:41.927Z,71.03
2018-03-31T00:57:41.948Z,71.32
2018-03-31T00:58:41.960Z,71.32
2018-03-31T00:59:41.984Z,70.94
2018-03-31T01:00:41.999Z,71.13
2018-03-31T01:01:42.014Z,70.94
2018-03-31T01:02:42.039Z,70.94
2018-03-31T01:03:42.060Z,71.32
2018-03-31T01:04:42.074Z,71.41
2018-03-31T01:05:42.094Z,71.41
2018-03-31T01:06:42.112Z,71.60
2018-03-31T01:07:42.129Z,71.51
2018-03-31T01:08:42.149Z,71.51
2018-03-31T01:09:42.173Z,71.70
2018-03-31T01:10:42.187Z,71.80
2018-03-31T01:11:42.203Z,71.03
2018-03-31T01:12:42.224Z,70.84
2018-03-31T01:13:42.240Z,70.94
2018-03-31T01:14:42.262Z,71.22
2018-03-31T01:15:42.282Z,71.60
2018-03-31T01:16:42.301Z,71.70
2018-03-31T01:17:42.318Z,71.60
2018-03-31T01:18:42.334Z,71.89
2018-03-31T01:19:42.356Z,71.51
2018-03-31T01:20:42.373Z,71.80
2018-03-31T01:21:42.392Z,71.41
2018-03-31T01:22:42.409Z,70.94
2018-03-31T01:23:42.422Z,70.84
2018-03-31T01:24:42.451Z,70.28
2018-03-31T01:25:42.465Z,71.13
2018-03-31T01:26:42.482Z,71.41
2018-03-31T01:27:42.498Z,71.13
2018-03-31T01:28:42.517Z,71.22
2018-03-31T01:29:42.539Z,71.03
2018-03-31T01:30:42.551Z,71.22
2018-03-31T01:31:42.577Z,70.75
2018-03-31T01:32:42.593Z,71.22
2018-03-31T01:33:42.616Z,71.41
2018-03-31T01:34:42.626Z,71.22
2018-03-31T01:35:42.648Z,71.22
2018-03-31T01:36:42.666Z,71.70
2018-03-31T01:37:42.690Z,71.80
2018-03-31T01:38:42.707Z,71.80
2018-03-31T01:39:42.722Z,71.89
2018-03-31T01:40:42.742Z,71.32
2018-03-31T01:41:42.757Z,70.75
2018-03-31T01:42:42.776Z,70.84
2018-03-31T01:43:42.797Z,70.94
2018-03-31T01:44:42.823Z,70.84
2018-03-31T01:45:42.832Z,70.65
2018-03-31T01:46:42.847Z,70.84
2018-03-31T01:47:42.870Z,70.84
2018-03-31T01:48:42.886Z,70.65
2018-03-31T01:49:42.904Z,70.84
2018-03-31T01:50:42.922Z,71.22
2018-03-31T01:51:42.942Z,71.41
2018-03-31T01:52:42.963Z,71.22
2018-03-31T01:53:42.981Z,71.22
2018-03-31T01:54:42.999Z,71.32
2018-03-31T01:55:43.020Z,71.22
2018-03-31T01:56:43.034Z,71.41
2018-03-31T01:57:43.053Z,70.94
2018-03-31T01:58:43.069Z,70.56
2018-03-31T01:59:43.143Z,70.94
2018-03-31T02:00:43.105Z,71.03
2018-03-31T02:01:43.130Z,71.13
2018-03-31T02:02:43.144Z,71.80
2018-03-31T02:03:43.174Z,71.13
2018-03-31T02:04:43.186Z,70.47
2018-03-31T02:05:43.200Z,70.75
2018-03-31T02:06:43.223Z,70.94
2018-03-31T02:07:43.240Z,71.41
2018-03-31T02:08:43.258Z,71.60
2018-03-31T02:09:43.276Z,71.80
2018-03-31T02:10:43.290Z,72.27
2018-03-31T02:11:43.310Z,72.08
2018-03-31T02:12:43.327Z,72.74
2018-03-31T02:13:43.350Z,71.98
2018-03-31T02:14:43.366Z,72.27
2018-03-31T02:15:43.380Z,72.08
2018-03-31T02:16:43.404Z,72.17
2018-03-31T02:17:43.420Z,72.74
2018-03-31T02:18:43.434Z,72.74
2018-03-31T02:19:43.454Z,72.27
2018-03-31T02:20:43.475Z,72.27
2018-03-31T02:21:43.495Z,71.89
2018-03-31T02:22:43.511Z,71.80
2018-03-31T02:23:43.533Z,71.51
2018-03-31T02:24:43.554Z,71.41
2018-03-31T02:25:43.563Z,71.70
2018-03-31T02:26:43.584Z,71.13
2018-03-31T02:27:43.604Z,71.80
2018-03-31T02:28:43.625Z,71.70
2018-03-31T02:29:43.644Z,72.08
2018-03-31T02:30:43.655Z,72.27
2018-03-31T02:31:43.680Z,71.80
2018-03-31T02:32:43.695Z,71.98
2018-03-31T02:33:43.716Z,71.98
2018-03-31T02:34:43.735Z,72.27
2018-03-31T02:35:43.755Z,72.74
2018-03-31T02:36:43.771Z,72.64
2018-03-31T02:37:43.789Z,72.64
2018-03-31T02:38:43.803Z,72.36
2018-03-31T02:39:43.824Z,72.17
2018-03-31T02:40:43.839Z,71.89
2018-03-31T02:41:43.861Z,72.27
2018-03-31T02:42:43.882Z,72.74
2018-03-31T02:43:43.894Z,72.55
2018-03-31T02:44:43.918Z,72.08
2018-03-31T02:45:43.940Z,72.08
2018-03-31T02:46:43.953Z,72.27
2018-03-31T02:47:43.969Z,72.23
2018-03-31T02:48:43.992Z,73.03
2018-03-31T02:49:44.013Z,72.17
2018-03-31T02:50:44.022Z,72.33
2018-03-31T02:51:44.043Z,72.61
2018-03-31T02:52:44.056Z,72.61
2018-03-31T02:53:44.076Z,72.71
2018-03-31T02:54:44.098Z,73.08
2018-03-31T02:55:44.118Z,73.27
2018-03-31T02:56:44.132Z,73.12
2018-03-31T02:57:44.148Z,72.84
2018-03-31T02:58:44.168Z,72.74
2018-03-31T02:59:44.183Z,72.71
2018-03-31T03:00:44.202Z,72.52
2018-03-31T03:01:44.225Z,72.33
2018-03-31T03:02:44.238Z,72.14
2018-03-31T03:03:44.263Z,72.71
2018-03-31T03:04:44.279Z,73.08
2018-03-31T03:05:44.294Z,72.42
2018-03-31T03:06:44.317Z,72.52
2018-03-31T03:07:44.341Z,72.61
2018-03-31T03:08:44.347Z,72.42
2018-03-31T03:09:44.380Z,72.52
2018-03-31T03:10:44.387Z,72.80
2018-03-31T03:11:44.401Z,73.08
2018-03-31T03:12:44.422Z,73.08
2018-03-31T03:13:44.436Z,73.18
2018-03-31T03:14:44.454Z,72.99
2018-03-31T03:15:44.472Z,73.08
2018-03-31T03:16:44.491Z,73.18
2018-03-31T03:17:44.507Z,72.71
2018-03-31T03:18:44.526Z,72.52
2018-03-31T03:19:44.547Z,72.52
2018-03-31T03:20:44.562Z,72.52
2018-03-31T03:21:44.581Z,72.71
2018-03-31T03:22:44.596Z,73.37
2018-03-31T03:23:44.619Z,72.89
2018-03-31T03:24:44.639Z,73.94
2018-03-31T03:25:44.656Z,73.84
2018-03-31T03:26:44.675Z,73.65
2018-03-31T03:27:44.686Z,73.84
2018-03-31T03:28:44.710Z,74.13
2018-03-31T03:29:44.728Z,74.22
2018-03-31T03:30:44.750Z,74.51
2018-03-31T03:31:44.765Z,74.60
2018-03-31T03:32:44.784Z,74.51
2018-03-31T03:33:44.801Z,74.88
2018-03-31T03:34:44.817Z,74.41
2018-03-31T03:35:44.840Z,73.94
2018-03-31T03:36:44.851Z,74.13
2018-03-31T03:37:44.875Z,74.69
2018-03-31T03:38:44.890Z,75.07
2018-03-31T03:39:44.905Z,74.51
2018-03-31T03:40:44.926Z,74.51
2018-03-31T03:41:44.942Z,74.60
2018-03-31T03:42:44.961Z,75.17
2018-03-31T03:43:44.976Z,74.13
2018-03-31T03:44:44.994Z,74.51
2018-03-31T03:45:45.015Z,74.32
2018-03-31T03:46:45.030Z,74.41
2018-03-31T03:47:45.055Z,73.65
2018-03-31T03:48:45.071Z,73.75
2018-03-31T03:49:45.084Z,74.32
2018-03-31T03:50:45.106Z,74.79
2018-03-31T03:51:45.125Z,74.41
2018-03-31T03:52:45.140Z,74.88
2018-03-31T03:53:45.161Z,74.98
2018-03-31T03:54:45.179Z,74.69
2018-03-31T03:55:45.191Z,74.60
2018-03-31T03:56:45.216Z,74.69
2018-03-31T03:57:45.233Z,74.51
2018-03-31T03:58:45.250Z,74.41
2018-03-31T03:59:45.269Z,75.07
2018-03-31T04:00:45.280Z,74.69
2018-03-31T04:01:45.309Z,74.88
2018-03-31T04:02:45.319Z,74.98
2018-03-31T04:03:45.339Z,74.79
2018-03-31T04:04:45.363Z,74.13
2018-03-31T04:05:45.379Z,74.03
2018-03-31T04:06:45.387Z,74.22
2018-03-31T04:07:45.409Z,74.22
2018-03-31T04:08:45.424Z,73.84
2018-03-31T04:09:45.445Z,74.22
2018-03-31T04:10:45.463Z,74.13
2018-03-31T04:11:45.482Z,73.84
2018-03-31T04:12:45.505Z,74.32
2018-03-31T04:13:45.513Z,74.41
2018-03-31T04:14:45.534Z,74.69
2018-03-31T04:15:45.553Z,74.60
2018-03-31T04:16:45.569Z,74.13
2018-03-31T04:17:45.592Z,74.60
2018-03-31T04:18:45.606Z,74.60
2018-03-31T04:19:45.624Z,74.60
2018-03-31T04:20:45.645Z,74.69
2018-03-31T04:21:45.659Z,74.41
2018-03-31T04:22:45.680Z,75.07
2018-03-31T04:23:45.694Z,75.07
2018-03-31T04:24:45.713Z,74.98
2018-03-31T04:25:45.734Z,75.07
2018-03-31T04:26:45.748Z,75.07
2018-03-31T04:27:45.769Z,74.88
2018-03-31T04:28:45.783Z,74.41
2018-03-31T04:29:45.807Z,74.98
2018-03-31T04:30:45.817Z,74.32
2018-03-31T04:31:45.838Z,73.84
2018-03-31T04:32:45.858Z,73.65
2018-03-31T04:33:45.881Z,74.03
2018-03-31T04:34:45.891Z,74.32
2018-03-31T04:35:45.913Z,74.13
2018-03-31T04:36:45.926Z,73.84
2018-03-31T04:37:45.948Z,73.65
2018-03-31T04:38:45.962Z,73.84
2018-03-31T04:39:45.981Z,74.41
2018-03-31T04:40:45.997Z,74.79
2018-03-31T04:41:46.026Z,74.51
2018-03-31T04:42:46.043Z,74.41
2018-03-31T04:43:46.053Z,74.79
2018-03-31T04:44:46.083Z,74.88
2018-03-31T04:45:46.087Z,74.41
2018-03-31T04:46:46.107Z,74.51
2018-03-31T04:47:46.130Z,74.79
2018-03-31T04:48:46.140Z,74.51
2018-03-31T04:49:46.164Z,74.41
2018-03-31T04:50:46.179Z,74.41
2018-03-31T04:51:46.197Z,74.41
2018-03-31T04:52:46.223Z,74.60
2018-03-31T04:53:46.233Z,74.88
2018-03-31T04:54:46.251Z,74.69
2018-03-31T04:55:46.267Z,74.69
2018-03-31T04:56:46.286Z,74.69
2018-03-31T04:57:46.309Z,74.60
2018-03-31T04:58:46.321Z,74.22
2018-03-31T04:59:46.345Z,74.51
2018-03-31T05:00:46.365Z,74.41
2018-03-31T05:01:46.379Z,74.51
2018-03-31T05:02:46.400Z,74.88
2018-03-31T05:03:46.417Z,75.45
2018-03-31T05:04:46.437Z,74.69
2018-03-31T05:05:46.453Z,74.51
2018-03-31T05:06:46.480Z,74.69
2018-03-31T05:07:46.486Z,75.07
2018-03-31T05:08:46.506Z,74.60
2018-03-31T05:09:46.528Z,74.69
2018-03-31T05:10:46.545Z,75.07
2018-03-31T05:11:46.555Z,74.69
2018-03-31T05:12:46.576Z,74.88
2018-03-31T05:13:46.595Z,74.41
2018-03-31T05:14:46.619Z,74.26
2018-03-31T05:15:46.634Z,73.97
2018-03-31T05:16:46.645Z,73.69
2018-03-31T05:17:46.664Z,73.97
2018-03-31T05:18:46.685Z,73.79
2018-03-31T05:19:46.699Z,73.12
2018-03-31T05:20:46.733Z,72.64
2018-03-31T05:21:46.740Z,72.64
2018-03-31T05:22:46.755Z,72.45
2018-03-31T05:23:46.779Z,73.22
2018-03-31T05:24:46.790Z,72.74
2018-03-31T05:25:46.816Z,73.31
2018-03-31T05:26:46.829Z,73.60
2018-03-31T05:27:46.854Z,73.94
2018-03-31T05:28:46.864Z,73.84
2018-03-31T05:29:46.885Z,73.94
2018-03-31T05:30:46.901Z,73.69
2018-03-31T05:31:46.924Z,73.94
2018-03-31T05:32:46.946Z,73.84
2018-03-31T05:33:46.954Z,73.65
2018-03-31T05:34:46.978Z,73.88
2018-03-31T05:35:46.993Z,74.16
2018-03-31T05:36:47.012Z,73.60
2018-03-31T05:37:47.028Z,73.12
2018-03-31T05:38:47.048Z,73.31
2018-03-31T05:39:47.065Z,73.31
2018-03-31T05:40:47.087Z,73.08
2018-03-31T05:41:47.101Z,73.03
2018-03-31T05:42:47.122Z,73.12
2018-03-31T05:43:47.161Z,73.79
2018-03-31T05:44:47.154Z,73.37
2018-03-31T05:45:47.177Z,73.22
2018-03-31T05:46:47.193Z,73.37
2018-03-31T05:47:47.212Z,73.79
2018-03-31T05:48:47.223Z,73.69
2018-03-31T05:49:47.246Z,73.50
2018-03-31T05:50:47.262Z,73.22
2018-03-31T05:51:47.280Z,73.22
2018-03-31T05:52:47.298Z,73.22
2018-03-31T05:53:47.319Z,73.41
2018-03-31T05:54:47.334Z,73.31
2018-03-31T05:55:47.354Z,72.93
2018-03-31T05:56:47.373Z,72.45
2018-03-31T05:57:47.396Z,72.55
2018-03-31T05:58:47.408Z,73.41
2018-03-31T05:59:47.428Z,73.79
2018-03-31T06:00:47.446Z,73.22
2018-03-31T06:01:47.463Z,73.22
2018-03-31T06:02:47.477Z,73.69
2018-03-31T06:03:47.506Z,73.22
2018-03-31T06:04:47.519Z,73.79
2018-03-31T06:05:47.537Z,73.22
2018-03-31T06:06:47.563Z,73.22
2018-03-31T06:07:47.577Z,73.41
2018-03-31T06:08:47.598Z,73.31
2018-03-31T06:09:47.607Z,73.31
2018-03-31T06:10:47.627Z,73.22
2018-03-31T06:11:47.643Z,72.74
2018-03-31T06:12:47.664Z,72.93
2018-03-31T06:13:47.687Z,72.45
2018-03-31T06:14:47.696Z,72.45
2018-03-31T06:15:47.716Z,73.12
2018-03-31T06:16:47.737Z,72.93
2018-03-31T06:17:47.755Z,72.93
2018-03-31T06:18:47.782Z,72.93
2018-03-31T06:19:47.794Z,72.93
2018-03-31T06:20:47.814Z,72.64
2018-03-31T06:21:47.831Z,72.74
2018-03-31T06:22:47.842Z,72.36
2018-03-31T06:23:47.876Z,72.74
2018-03-31T06:24:47.882Z,72.64
2018-03-31T06:25:47.902Z,72.93
2018-03-31T06:26:47.921Z,72.74
2018-03-31T06:27:47.942Z,72.55
2018-03-31T06:28:47.956Z,72.55
2018-03-31T06:29:47.974Z,72.27
2018-03-31T06:30:47.999Z,72.74
2018-03-31T06:31:48.020Z,72.64
2018-03-31T06:32:48.032Z,72.55
2018-03-31T06:33:48.056Z,72.36
2018-03-31T06:34:48.070Z,72.64
2018-03-31T06:35:48.086Z,72.55
2018-03-31T06:36:48.102Z,72.17
2018-03-31T06:37:48.130Z,72.27
2018-03-31T06:38:48.141Z,72.17
2018-03-31T06:39:48.157Z,72.64
2018-03-31T06:40:48.175Z,72.45
2018-03-31T06:41:48.200Z,72.55
2018-03-31T06:42:48.214Z,72.45
2018-03-31T06:43:48.249Z,72.93
2018-03-31T06:44:48.249Z,72.45
2018-03-31T06:45:48.272Z,72.45
2018-03-31T06:46:48.289Z,72.36
2018-03-31T06:47:48.310Z,72.84
2018-03-31T06:48:48.327Z,72.27
2018-03-31T06:49:48.342Z,71.98
2018-03-31T06:50:48.364Z,71.98
2018-03-31T06:51:48.379Z,72.27
2018-03-31T06:52:48.430Z,72.27
2018-03-31T06:53:48.415Z,71.89
2018-03-31T06:54:48.440Z,72.27
2018-03-31T06:55:48.454Z,72.27
2018-03-31T06:56:48.469Z,71.98
2018-03-31T06:57:48.489Z,71.70
2018-03-31T06:58:48.514Z,71.70
2018-03-31T06:59:48.528Z,71.60
2018-03-31T07:00:48.547Z,71.55
2018-03-31T07:01:48.566Z,71.70
2018-03-31T07:02:48.582Z,71.36
2018-03-31T07:03:48.606Z,71.64
2018-03-31T07:04:48.624Z,71.36
2018-03-31T07:05:48.644Z,70.98
2018-03-31T07:06:48.662Z,71.36
2018-03-31T07:07:48.674Z,71.17
2018-03-31T07:08:48.694Z,71.32
2018-03-31T07:09:48.716Z,71.60
2018-03-31T07:10:48.734Z,71.36
2018-03-31T07:11:48.754Z,71.73
2018-03-31T07:12:48.779Z,71.17
2018-03-31T07:13:48.788Z,71.36
2018-03-31T07:14:48.808Z,71.36
2018-03-31T07:15:48.826Z,71.07
2018-03-31T07:16:48.842Z,70.98
2018-03-31T07:17:48.861Z,70.31
2018-03-31T07:18:48.878Z,70.40
2018-03-31T07:19:48.899Z,70.21
2018-03-31T07:20:48.918Z,70.88
2018-03-31T07:21:48.937Z,70.98
2018-03-31T07:22:48.959Z,70.98
2018-03-31T07:23:48.981Z,70.59
2018-03-31T07:24:49.003Z,70.50
2018-03-31T07:25:49.010Z,69.93
2018-03-31T07:26:49.033Z,70.03
2018-03-31T07:27:49.052Z,70.03
2018-03-31T07:28:49.068Z,69.46
2018-03-31T07:29:49.088Z,69.55
2018-03-31T07:30:49.107Z,69.27
2018-03-31T07:31:49.131Z,69.65
2018-03-31T07:32:49.142Z,70.12
2018-03-31T07:33:49.169Z,70.40
2018-03-31T07:34:49.182Z,70.31
2018-03-31T07:35:49.202Z,70.31
2018-03-31T07:36:49.222Z,70.21
2018-03-31T07:37:49.242Z,70.21
2018-03-31T07:38:49.258Z,70.31
2018-03-31T07:39:49.277Z,70.31
2018-03-31T07:40:49.301Z,70.21
2018-03-31T07:41:49.320Z,71.17
2018-03-31T07:42:49.331Z,71.07
2018-03-31T07:43:49.356Z,70.78
2018-03-31T07:44:49.371Z,70.21
2018-03-31T07:45:49.392Z,69.55
2018-03-31T07:46:49.412Z,69.55
2018-03-31T07:47:49.432Z,69.55
2018-03-31T07:48:49.447Z,69.65
2018-03-31T07:49:49.471Z,70.03
2018-03-31T07:50:49.490Z,69.93
2018-03-31T07:51:49.505Z,69.65
2018-03-31T07:52:49.531Z,69.65
2018-03-31T07:53:49.547Z,69.55
2018-03-31T07:54:49.561Z,70.21
2018-03-31T07:55:49.585Z,70.21
2018-03-31T07:56:49.604Z,70.03
2018-03-31T07:57:49.621Z,69.65
2018-03-31T07:58:49.644Z,69.08
2018-03-31T07:59:49.656Z,69.17
2018-03-31T08:00:49.686Z,69.84
2018-03-31T08:01:49.696Z,69.74
2018-03-31T08:02:49.716Z,69.65
2018-03-31T08:03:49.736Z,69.65
2018-03-31T08:04:49.762Z,68.98
2018-03-31T08:05:49.776Z,68.79
2018-03-31T08:06:49.792Z,70.03
2018-03-31T08:07:49.811Z,70.50
2018-03-31T08:08:49.833Z,70.31
2018-03-31T08:09:49.851Z,70.31
2018-03-31T08:10:49.870Z,70.31
2018-03-31T08:11:49.885Z,70.12
2018-03-31T08:12:49.906Z,70.50
2018-03-31T08:13:49.925Z,71.17
2018-03-31T08:14:49.946Z,70.54
2018-03-31T08:15:49.968Z,70.63
2018-03-31T08:16:49.990Z,69.68
2018-03-31T08:17:50.005Z,69.49
2018-03-31T08:18:50.023Z,69.68
2018-03-31T08:19:50.039Z,69.30
2018-03-31T08:20:50.064Z,69.02
2018-03-31T08:21:50.079Z,69.68
2018-03-31T08:22:50.103Z,69.30
2018-03-31T08:23:50.115Z,69.96
2018-03-31T08:24:50.146Z,70.35
2018-03-31T08:25:50.157Z,70.92
2018-03-31T08:26:50.174Z,70.35
2018-03-31T08:27:50.198Z,70.73
2018-03-31T08:28:50.220Z,69.87
2018-03-31T08:29:50.233Z,70.92
2018-03-31T08:30:50.255Z,70.44
2018-03-31T08:31:50.282Z,71.01
2018-03-31T08:32:50.294Z,70.92
2018-03-31T08:33:50.315Z,69.49
2018-03-31T08:34:50.342Z,69.59
2018-03-31T08:35:50.356Z,69.30
2018-03-31T08:36:50.368Z,69.21
2018-03-31T08:37:50.391Z,69.02
2018-03-31T08:38:50.419Z,69.30
2018-03-31T08:39:50.429Z,69.21
2018-03-31T08:40:50.447Z,69.78
2018-03-31T08:41:50.469Z,69.59
2018-03-31T08:42:50.488Z,69.02
2018-03-31T08:43:50.508Z,69.30
2018-03-31T08:44:50.523Z,69.21
2018-03-31T08:45:50.549Z,69.78
2018-03-31T08:46:50.570Z,69.78
2018-03-31T08:47:50.589Z,70.25
2018-03-31T08:48:50.606Z,70.82
2018-03-31T08:49:50.645Z,71.01
2018-03-31T08:50:50.647Z,70.15
2018-03-31T08:51:50.666Z,69.78
2018-03-31T08:52:50.683Z,70.25
2018-03-31T08:53:50.702Z,71.01
2018-03-31T08:54:50.726Z,71.01
2018-03-31T08:55:50.743Z,71.48
2018-03-31T08:56:50.762Z,71.11
2018-03-31T08:57:50.782Z,71.30
2018-03-31T08:58:50.802Z,71.39
2018-03-31T08:59:50.823Z,71.39
2018-03-31T09:00:50.846Z,71.67
2018-03-31T09:01:50.865Z,71.67
2018-03-31T09:02:50.887Z,71.30
2018-03-31T09:03:50.913Z,71.58
2018-03-31T09:04:50.926Z,72.72
2018-03-31T09:05:50.954Z,72.81
2018-03-31T09:06:50.963Z,73.96
2018-03-31T09:07:50.984Z,73.48
2018-03-31T09:08:51.001Z,74.62
2018-03-31T09:09:51.022Z,74.62
2018-03-31T09:10:51.041Z,74.43
2018-03-31T09:11:51.068Z,75.85
2018-03-31T09:12:51.086Z,77.56
2018-03-31T09:13:51.116Z,78.32
2018-03-31T09:14:51.122Z,79.08
2018-03-31T09:15:51.150Z,80.41
2018-03-31T09:16:51.163Z,80.88
2018-03-31T09:17:51.182Z,80.98
2018-03-31T09:18:51.199Z,82.12
2018-03-31T09:19:51.216Z,81.26
2018-03-31T09:20:51.242Z,80.51
2018-03-31T09:21:51.262Z,82.78
2018-03-31T09:22:51.280Z,82.50
2018-03-31T09:23:51.299Z,82.65
2018-03-31T09:24:51.315Z,81.70
2018-03-31T09:25:51.336Z,82.46
2018-03-31T09:26:51.365Z,83.12
2018-03-31T09:27:51.381Z,83.12
2018-03-31T09:28:51.396Z,84.45
2018-03-31T09:29:51.410Z,83.16
2018-03-31T09:30:51.430Z,83.59
2018-03-31T09:31:51.450Z,83.59
2018-03-31T09:32:51.471Z,84.74
2018-03-31T09:33:51.494Z,84.55
2018-03-31T09:34:51.514Z,83.78
2018-03-31T09:35:51.530Z,83.03
2018-03-31T09:36:51.549Z,82.84
2018-03-31T09:37:51.565Z,81.98
2018-03-31T09:38:51.586Z,82.93
2018-03-31T09:39:51.610Z,83.69
2018-03-31T09:40:51.620Z,84.92
2018-03-31T09:41:51.642Z,84.92
2018-03-31T09:42:51.664Z,84.92
2018-03-31T09:43:51.680Z,85.11
2018-03-31T09:44:51.702Z,84.74
2018-03-31T09:45:51.729Z,84.83
2018-03-31T09:46:51.750Z,84.45
2018-03-31T09:47:51.754Z,85.78
2018-03-31T09:48:51.778Z,88.15
2018-03-31T09:49:51.803Z,87.58
2018-03-31T09:50:51.814Z,88.24
2018-03-31T09:51:51.837Z,88.62
2018-03-31T09:52:51.851Z,87.96
2018-03-31T09:53:51.875Z,87.58
2018-03-31T09:54:51.891Z,87.58
2018-03-31T09:55:51.904Z,89.29
2018-03-31T09:56:51.934Z,91.47
2018-03-31T09:57:51.945Z,91.56
2018-03-31T09:58:51.969Z,92.23
2018-03-31T09:59:51.984Z,91.28
2018-03-31T10:00:52.004Z,89.95
2018-03-31T10:01:52.018Z,91.00
2018-03-31T10:02:52.040Z,90.24
2018-03-31T10:03:52.058Z,91.75
2018-03-31T10:04:52.077Z,91.75
2018-03-31T10:05:52.092Z,90.62
2018-03-31T10:06:52.112Z,90.14
2018-03-31T10:07:52.145Z,89.76
2018-03-31T10:08:52.152Z,89.86
2018-03-31T10:09:52.169Z,91.09
2018-03-31T10:10:52.192Z,89.67
2018-03-31T10:11:52.208Z,90.24
2018-03-31T10:12:52.238Z,90.33
2018-03-31T10:13:52.258Z,89.67
2018-03-31T10:14:52.265Z,90.43
2018-03-31T10:15:52.299Z,90.52
2018-03-31T10:16:52.303Z,90.14
2018-03-31T10:17:52.319Z,91.28
2018-03-31T10:18:52.341Z,90.14
2018-03-31T10:19:52.361Z,89.00
2018-03-31T10:20:52.377Z,89.48
2018-03-31T10:21:52.397Z,90.00
2018-03-31T10:22:52.417Z,90.52
2018-03-31T10:23:52.436Z,91.28
2018-03-31T10:24:52.457Z,89.58
2018-03-31T10:25:52.475Z,88.91
2018-03-31T10:26:52.487Z,89.58
2018-03-31T10:27:52.506Z,88.81
2018-03-31T10:28:52.526Z,88.15
2018-03-31T10:29:52.548Z,90.52
2018-03-31T10:30:52.571Z,89.95
2018-03-31T10:31:52.590Z,89.58
2018-03-31T10:32:52.604Z,88.81
2018-03-31T10:33:52.635Z,88.72
2018-03-31T10:34:52.637Z,88.34
2018-03-31T10:35:52.660Z,87.20
2018-03-31T10:36:52.686Z,88.53
2018-03-31T10:37:52.697Z,88.81
2018-03-31T10:38:52.724Z,89.00
2018-03-31T10:39:52.735Z,89.58
2018-03-31T10:40:52.759Z,90.52
2018-03-31T10:41:52.787Z,90.90
2018-03-31T10:42:52.792Z,90.05
2018-03-31T10:43:52.816Z,89.58
2018-03-31T10:44:52.826Z,90.43
2018-03-31T10:45:52.850Z,90.33
2018-03-31T10:46:52.867Z,90.81
2018-03-31T10:47:52.885Z,89.00
2018-03-31T10:48:52.912Z,89.00
2018-03-31T10:49:52.925Z,89.90
2018-03-31T10:50:52.941Z,88.43
2018-03-31T10:51:52.962Z,87.68
2018-03-31T10:52:52.976Z,87.34
2018-03-31T10:53:52.996Z,87.24
2018-03-31T10:54:53.016Z,86.87
2018-03-31T10:55:53.040Z,86.11
2018-03-31T10:56:53.061Z,87.15
2018-03-31T10:57:53.075Z,84.97
2018-03-31T10:58:53.090Z,85.63
2018-03-31T10:59:53.110Z,86.20
2018-03-31T11:00:53.140Z,85.72
2018-03-31T11:01:53.150Z,86.39
2018-03-31T11:02:53.172Z,86.58
2018-03-31T11:03:53.190Z,86.01
2018-03-31T11:04:53.216Z,85.63
2018-03-31T11:05:53.226Z,85.44
2018-03-31T11:06:53.244Z,84.97
2018-03-31T11:07:53.268Z,82.88
2018-03-31T11:08:53.289Z,83.64
2018-03-31T11:09:53.311Z,82.78
2018-03-31T11:10:53.323Z,83.83
2018-03-31T11:11:53.347Z,83.73
2018-03-31T11:12:53.395Z,83.16
2018-03-31T11:13:53.387Z,82.69
2018-03-31T11:14:53.394Z,83.36
2018-03-31T11:15:53.418Z,83.39
2018-03-31T11:16:53.434Z,83.26
2018-03-31T11:17:53.453Z,83.07
2018-03-31T11:18:53.479Z,82.21
2018-03-31T11:19:53.500Z,82.82
2018-03-31T11:20:53.518Z,83.01
2018-03-31T11:21:53.539Z,82.26
2018-03-31T11:22:53.554Z,80.79
2018-03-31T11:23:53.569Z,81.59
2018-03-31T11:24:53.594Z,81.97
2018-03-31T11:25:53.609Z,82.92
2018-03-31T11:26:53.623Z,83.83
2018-03-31T11:27:53.642Z,83.26
2018-03-31T11:28:53.668Z,82.97
2018-03-31T11:29:53.685Z,82.69
2018-03-31T11:30:53.705Z,84.21
2018-03-31T11:31:53.735Z,84.01
2018-03-31T11:32:53.743Z,85.25
2018-03-31T11:33:53.766Z,85.44
2018-03-31T11:34:53.784Z,84.97
2018-03-31T11:35:53.800Z,83.83
2018-03-31T11:36:53.823Z,84.59
2018-03-31T11:37:53.838Z,84.59
2018-03-31T11:38:53.861Z,84.49
2018-03-31T11:39:53.874Z,84.49
2018-03-31T11:40:53.892Z,84.68
2018-03-31T11:41:53.913Z,84.78
2018-03-31T11:42:53.933Z,84.87
2018-03-31T11:43:53.953Z,84.97
2018-03-31T11:44:53.978Z,83.45
2018-03-31T11:45:53.994Z,82.69
2018-03-31T11:46:54.012Z,83.26
2018-03-31T11:47:54.031Z,84.21
2018-03-31T11:48:54.105Z,84.68
2018-03-31T11:49:54.066Z,85.82
2018-03-31T11:50:54.087Z,85.91
2018-03-31T11:51:54.107Z,86.49
2018-03-31T11:52:54.127Z,87.34
2018-03-31T11:53:54.146Z,87.15
2018-03-31T11:54:54.164Z,84.68
2018-03-31T11:55:54.184Z,84.59
2018-03-31T11:56:54.206Z,84.21
2018-03-31T11:57:54.227Z,84.01
2018-03-31T11:58:54.246Z,86.49
2018-03-31T11:59:54.259Z,85.82
2018-03-31T12:00:54.323Z,85.82
2018-03-31T12:01:54.293Z,83.92
2018-03-31T12:02:54.316Z,84.97
2018-03-31T12:03:54.337Z,84.97
2018-03-31T12:04:54.357Z,85.91
2018-03-31T12:05:54.373Z,86.11
2018-03-31T12:06:54.398Z,86.05
2018-03-31T12:07:54.410Z,85.20
2018-03-31T12:08:54.431Z,85.30
2018-03-31T12:09:54.449Z,85.68
2018-03-31T12:10:54.469Z,84.16
2018-03-31T12:11:54.486Z,83.68
2018-03-31T12:12:54.506Z,83.49
2018-03-31T12:13:54.520Z,84.53
2018-03-31T12:14:54.541Z,84.91
2018-03-31T12:15:54.564Z,82.45
2018-03-31T12:16:54.581Z,82.07
2018-03-31T12:17:54.605Z,82.16
2018-03-31T12:18:54.661Z,83.01
2018-03-31T12:19:54.636Z,82.92
2018-03-31T12:20:54.672Z,83.49
2018-03-31T12:21:54.681Z,82.73
2018-03-31T12:22:54.702Z,82.73
2018-03-31T12:23:54.725Z,81.97
2018-03-31T12:24:54.739Z,80.26
2018-03-31T12:25:54.760Z,81.02
2018-03-31T12:26:54.771Z,81.40
2018-03-31T12:27:54.799Z,81.68
2018-03-31T12:28:54.819Z,82.73
2018-03-31T12:29:54.835Z,82.82
2018-03-31T12:30:54.850Z,82.54
2018-03-31T12:31:54.871Z,82.73
2018-03-31T12:32:54.894Z,82.73
2018-03-31T12:33:54.910Z,83.49
2018-03-31T12:34:54.934Z,82.45
2018-03-31T12:35:54.956Z,83.39
2018-03-31T12:36:54.972Z,83.59
2018-03-31T12:37:54.996Z,84.53
2018-03-31T12:38:55.013Z,84.53
2018-03-31T12:39:55.030Z,83.30
2018-03-31T12:40:55.051Z,82.73
2018-03-31T12:41:55.073Z,83.20
2018-03-31T12:42:55.084Z,83.11
2018-03-31T12:43:55.106Z,82.64
2018-03-31T12:44:55.126Z,82.64
2018-03-31T12:45:55.155Z,82.54
2018-03-31T12:46:55.165Z,83.59
2018-03-31T12:47:55.190Z,85.96
2018-03-31T12:48:55.206Z,86.43
2018-03-31T12:49:55.226Z,83.97
2018-03-31T12:50:55.245Z,83.39
2018-03-31T12:51:55.264Z,82.92
2018-03-31T12:52:55.280Z,84.16